Time;durP1;ratioP1;P1;durP2;ratioP2;P2;SDS_P1;SDS_P2;PMS_P1;PMS_P2;Temp;Humidity;BMP_temperature;BMP_pressure;BME280_temperature;BME280_humidity;BME280_pressure;Samples;Min_cycle;Max_cycle;Signal;HPM_P1;HPM_P2
2022/04/11 00:00:36;;;;;;;6.65;3.17;;;;;;;;;;5088441;28;20474;-62
2022/04/11 00:03:02;;;;;;;5.32;2.85;;;;;;;;;;5072635;28;20592;-62
2022/04/11 00:05:28;;;;;;;5.55;2.88;;;;;;;;;;5078925;28;20024;-62
2022/04/11 00:07:55;;;;;;;3.78;2.95;;;;;;;;;;5080360;28;20028;-62
2022/04/11 00:10:21;;;;;;;5.93;3.35;;;;;;;;;;5081549;28;20020;-62
2022/04/11 00:12:47;;;;;;;4.65;3.08;;;;;;;;;;5083899;28;20020;-62
2022/04/11 00:15:13;;;;;;;12.63;4.53;;;;;;;;;;5082795;28;20027;-62
2022/04/11 00:17:39;;;;;;;4.82;3.10;;;;;;;;;;5079688;28;20021;-62
2022/04/11 00:20:06;;;;;;;6.93;3.35;;;;;;;;;;5076010;28;20095;-62
2022/04/11 00:22:36;;;;;;;4.72;3.03;;;;;;;;;;5074978;28;20070;-62
2022/04/11 00:25:03;;;;;;;9.50;3.30;;;;;;;;;;5084919;28;20092;-62
2022/04/11 00:27:29;;;;;;;6.05;3.05;;;;;;;;;;5082586;28;20020;-63
2022/04/11 00:29:55;;;;;;;4.85;3.47;;;;;;;;;;5077675;28;20431;-62
2022/04/11 00:32:21;;;;;;;4.50;3.13;;;;;;;;;;5087985;28;20489;-62
2022/04/11 00:34:48;;;;;;;7.97;3.50;;;;;;;;;;5091127;28;20092;-62
2022/04/11 00:37:14;;;;;;;4.53;3.00;;;;;;;;;;5081904;28;20032;-62
2022/04/11 00:39:40;;;;;;;7.18;3.78;;;;;;;;;;5089976;28;20024;-63
2022/04/11 00:42:08;;;;;;;4.88;2.95;;;;;;;;;;5074937;28;20024;-63
2022/04/11 00:44:34;;;;;;;5.38;3.08;;;;;;;;;;5088048;28;20028;-63
2022/04/11 00:47:00;;;;;;;4.30;3.10;;;;;;;;;;5078784;28;20040;-63
2022/04/11 00:49:26;;;;;;;7.05;3.17;;;;;;;;;;5081421;28;20126;-63
2022/04/11 00:51:53;;;;;;;3.60;2.60;;;;;;;;;;5085324;28;20028;-63
2022/04/11 00:54:19;;;;;;;4.93;3.13;;;;;;;;;;5073336;28;20450;-63
2022/04/11 00:56:46;;;;;;;5.05;3.22;;;;;;;;;;5086168;28;20120;-63
2022/04/11 00:59:13;;;;;;;9.02;3.50;;;;;;;;;;5079644;28;20016;-62
2022/04/11 01:01:40;;;;;;;5.55;2.90;;;;;;;;;;5073900;28;20071;-63
2022/04/11 01:04:06;;;;;;;3.83;2.75;;;;;;;;;;5085191;28;20059;-63
2022/04/11 01:06:32;;;;;;;5.15;3.00;;;;;;;;;;5078928;28;20017;-62
2022/04/11 01:08:59;;;;;;;8.75;3.17;;;;;;;;;;5084823;28;20482;-63
2022/04/11 01:11:26;;;;;;;5.70;3.45;;;;;;;;;;5078937;28;20035;-62
2022/04/11 01:13:52;;;;;;;6.43;3.60;;;;;;;;;;5077166;28;20052;-62
2022/04/11 01:16:27;;;;;;;5.30;2.90;;;;;;;;;;5086810;28;20038;-62
2022/04/11 01:18:53;;;;;;;5.07;3.10;;;;;;;;;;5076122;28;20046;-62
2022/04/11 01:21:19;;;;;;;6.95;3.20;;;;;;;;;;5074703;28;20025;-62
2022/04/11 01:23:46;;;;;;;7.00;3.30;;;;;;;;;;5082272;28;20031;-63
2022/04/11 01:26:13;;;;;;;6.45;3.15;;;;;;;;;;5089257;28;20060;-63
2022/04/11 01:28:40;;;;;;;5.13;2.88;;;;;;;;;;5072218;28;20520;-62
2022/04/11 01:31:10;;;;;;;5.40;2.55;;;;;;;;;;5090131;28;20612;-62
2022/04/11 01:33:36;;;;;;;3.20;2.45;;;;;;;;;;5085860;28;20054;-62
2022/04/11 01:36:05;;;;;;;4.22;2.60;;;;;;;;;;5089549;28;20032;-62
2022/04/11 01:38:31;;;;;;;3.72;3.05;;;;;;;;;;5081418;28;20074;-63
2022/04/11 01:40:57;;;;;;;8.65;4.03;;;;;;;;;;5085297;28;20032;-62
2022/04/11 01:43:24;;;;;;;5.45;2.60;;;;;;;;;;5079779;28;20425;-62
2022/04/11 01:45:51;;;;;;;4.40;2.90;;;;;;;;;;5077553;28;20033;-62
2022/04/11 01:48:25;;;;;;;11.20;3.22;;;;;;;;;;5087989;28;20082;-63
2022/04/11 01:50:52;;;;;;;3.83;2.47;;;;;;;;;;5078568;28;20134;-63
2022/04/11 01:53:19;;;;;;;6.65;3.15;;;;;;;;;;5074264;28;20493;-63
2022/04/11 01:55:45;;;;;;;6.78;2.50;;;;;;;;;;5084734;28;20058;-62
2022/04/11 01:58:12;;;;;;;4.22;2.80;;;;;;;;;;5078660;28;20036;-63
2022/04/11 02:00:39;;;;;;;4.32;2.55;;;;;;;;;;5089388;28;20396;-63
2022/04/11 02:03:06;;;;;;;3.45;2.67;;;;;;;;;;5073732;28;20029;-62
2022/04/11 02:05:32;;;;;;;4.28;2.83;;;;;;;;;;5077312;28;20501;-62
2022/04/11 02:07:59;;;;;;;4.38;2.33;;;;;;;;;;5088021;28;20535;-62
2022/04/11 02:10:28;;;;;;;6.00;2.55;;;;;;;;;;5074413;28;20469;-62
2022/04/11 02:12:55;;;;;;;3.63;2.70;;;;;;;;;;5085463;28;20062;-62
2022/04/11 02:15:22;;;;;;;5.05;2.65;;;;;;;;;;5092681;28;20028;-62
2022/04/11 02:17:50;;;;;;;3.88;2.47;;;;;;;;;;5093379;28;20035;-63
2022/04/11 02:20:16;;;;;;;5.78;2.75;;;;;;;;;;5091954;28;20036;-62
2022/04/11 02:22:46;;;;;;;4.90;2.50;;;;;;;;;;5072991;28;20102;-63
2022/04/11 02:25:13;;;;;;;4.50;2.72;;;;;;;;;;5092661;28;20032;-62
2022/04/11 02:27:39;;;;;;;6.80;2.92;;;;;;;;;;5093192;28;20026;-63
2022/04/11 02:30:06;;;;;;;5.72;3.15;;;;;;;;;;5088662;28;20029;-62
2022/04/11 02:32:33;;;;;;;3.88;2.20;;;;;;;;;;5072392;28;20489;-62
2022/04/11 02:34:59;;;;;;;4.15;2.60;;;;;;;;;;5083432;28;20044;-62
2022/04/11 02:37:26;;;;;;;3.88;2.20;;;;;;;;;;5092052;28;20386;-62
2022/04/11 02:39:52;;;;;;;7.05;2.50;;;;;;;;;;5073713;28;20029;-62
2022/04/11 02:42:23;;;;;;;5.78;2.70;;;;;;;;;;5072355;28;20466;-62
2022/04/11 02:44:51;;;;;;;6.40;2.50;;;;;;;;;;5073348;28;20036;-62
2022/04/11 02:47:17;;;;;;;3.00;2.13;;;;;;;;;;5087289;28;20015;-62
2022/04/11 02:49:44;;;;;;;3.20;2.55;;;;;;;;;;5073078;28;20021;-62
2022/04/11 02:52:31;;;;;;;3.63;2.42;;;;;;;;;;5071897;28;20020;-63
2022/04/11 02:54:57;;;;;;;3.78;1.90;;;;;;;;;;5084151;28;20024;-62
2022/04/11 02:57:24;;;;;;;2.55;2.10;;;;;;;;;;5076770;28;20387;-62
2022/04/11 02:59:50;;;;;;;4.18;2.45;;;;;;;;;;5088040;28;20041;-62
2022/04/11 03:02:17;;;;;;;2.90;2.20;;;;;;;;;;5079707;28;20460;-62
2022/04/11 03:04:43;;;;;;;4.20;2.30;;;;;;;;;;5078408;28;20025;-62
2022/04/11 03:07:16;;;;;;;8.02;4.10;;;;;;;;;;5086394;28;20025;-62
2022/04/11 03:09:42;;;;;;;3.00;2.05;;;;;;;;;;5074786;28;20226;-62
2022/04/11 03:12:09;;;;;;;3.13;2.38;;;;;;;;;;5070488;28;20028;-62
2022/04/11 03:14:36;;;;;;;5.32;2.20;;;;;;;;;;5081240;28;20020;-62
2022/04/11 03:17:04;;;;;;;2.30;1.80;;;;;;;;;;5082914;28;20140;-62
2022/04/11 03:19:33;;;;;;;4.13;1.92;;;;;;;;;;5091236;28;20515;-62
2022/04/11 03:22:00;;;;;;;2.67;2.00;;;;;;;;;;5083387;28;20032;-63
2022/04/11 03:24:26;;;;;;;3.83;2.08;;;;;;;;;;5079001;28;20047;-62
2022/04/11 03:26:53;;;;;;;2.72;2.00;;;;;;;;;;5080600;28;20029;-63
2022/04/11 03:29:24;;;;;;;5.05;2.35;;;;;;;;;;5086181;28;20399;-63
2022/04/11 03:31:51;;;;;;;3.67;2.00;;;;;;;;;;5074438;28;20035;-63
2022/04/11 03:34:19;;;;;;;7.68;2.35;;;;;;;;;;5085337;28;20041;-63
2022/04/11 03:36:45;;;;;;;6.55;2.70;;;;;;;;;;5072766;28;20043;-63
2022/04/11 03:39:13;;;;;;;4.82;2.42;;;;;;;;;;5086970;28;20119;-62
2022/04/11 03:41:44;;;;;;;4.55;2.30;;;;;;;;;;5074431;28;20024;-62
2022/04/11 03:44:16;;;;;;;3.25;1.90;;;;;;;;;;5085829;28;20082;-62
2022/04/11 03:46:44;;;;;;;3.85;1.95;;;;;;;;;;5080240;28;20020;-62
2022/04/11 03:49:12;;;;;;;2.63;1.77;;;;;;;;;;5074507;28;20374;-62
2022/04/11 03:51:40;;;;;;;6.25;2.35;;;;;;;;;;5089072;28;20032;-63
2022/04/11 03:54:06;;;;;;;3.13;2.28;;;;;;;;;;5074744;28;20016;-62
2022/04/11 03:56:33;;;;;;;4.20;2.10;;;;;;;;;;5083660;28;20031;-62
2022/04/11 03:59:02;;;;;;;5.40;2.13;;;;;;;;;;5082350;28;20393;-62
2022/04/11 04:01:29;;;;;;;5.10;2.40;;;;;;;;;;5079573;28;20110;-62
2022/04/11 04:03:55;;;;;;;3.55;2.53;;;;;;;;;;5078726;28;20024;-62
2022/04/11 04:06:22;;;;;;;4.43;1.98;;;;;;;;;;5078148;28;20103;-62
2022/04/11 04:08:48;;;;;;;5.35;2.10;;;;;;;;;;5080877;28;20023;-63
2022/04/11 04:11:23;;;;;;;2.58;1.95;;;;;;;;;;5077964;28;20021;-63
2022/04/11 04:14:08;;;;;;;3.55;2.00;;;;;;;;;;5079991;28;20124;-63
2022/04/11 04:16:39;;;;;;;6.20;2.35;;;;;;;;;;5086294;28;20020;-62
2022/04/11 04:19:08;;;;;;;5.35;2.22;;;;;;;;;;5081525;28;20028;-62
2022/04/11 04:21:35;;;;;;;2.97;2.25;;;;;;;;;;5080332;28;20108;-62
2022/04/11 04:24:02;;;;;;;6.07;1.95;;;;;;;;;;5080108;28;20409;-63
2022/04/11 04:26:30;;;;;;;4.07;2.30;;;;;;;;;;5085385;28;20020;-62
2022/04/11 04:28:58;;;;;;;3.05;1.83;;;;;;;;;;5071991;28;20120;-62
2022/04/11 04:31:27;;;;;;;3.60;2.20;;;;;;;;;;5078924;28;20107;-62
2022/04/11 04:33:54;;;;;;;2.40;2.03;;;;;;;;;;5074782;28;20592;-63
2022/04/11 04:36:21;;;;;;;3.80;2.25;;;;;;;;;;5082057;28;20040;-63
2022/04/11 04:38:48;;;;;;;4.43;2.30;;;;;;;;;;5089322;28;20036;-63
2022/04/11 04:41:14;;;;;;;5.60;2.35;;;;;;;;;;5082002;28;20067;-63
2022/04/11 04:43:41;;;;;;;3.05;2.15;;;;;;;;;;5082567;28;20077;-63
2022/04/11 04:46:07;;;;;;;4.57;2.25;;;;;;;;;;5078724;28;20064;-62
2022/04/11 04:48:39;;;;;;;3.90;2.03;;;;;;;;;;5069723;28;20044;-63
2022/04/11 04:51:05;;;;;;;3.58;2.05;;;;;;;;;;5069156;28;20020;-62
2022/04/11 04:53:35;;;;;;;4.07;2.50;;;;;;;;;;5079450;28;20099;-62
2022/04/11 04:56:02;;;;;;;5.32;2.13;;;;;;;;;;5078357;28;20032;-63
2022/04/11 04:58:31;;;;;;;3.17;2.30;;;;;;;;;;5075390;28;20024;-63
2022/04/11 05:00:58;;;;;;;5.30;2.58;;;;;;;;;;5069913;28;20066;-63
2022/04/11 05:03:26;;;;;;;5.18;2.30;;;;;;;;;;5085479;28;20056;-63
2022/04/11 05:05:55;;;;;;;3.92;2.53;;;;;;;;;;5070733;28;20031;-62
2022/04/11 05:08:21;;;;;;;3.08;2.13;;;;;;;;;;5070188;28;20410;-63
2022/04/11 05:10:47;;;;;;;3.78;2.25;;;;;;;;;;5069668;28;20035;-62
2022/04/11 05:13:13;;;;;;;5.68;2.70;;;;;;;;;;5069647;28;20029;-63
2022/04/11 05:15:42;;;;;;;3.40;2.10;;;;;;;;;;5070042;28;20036;-62
2022/04/11 05:18:14;;;;;;;3.55;2.20;;;;;;;;;;5080966;28;20028;-63
2022/04/11 05:20:41;;;;;;;3.72;2.20;;;;;;;;;;5075922;28;20028;-62
2022/04/11 05:23:07;;;;;;;4.35;2.30;;;;;;;;;;5088147;28;20028;-62
2022/04/11 05:25:37;;;;;;;3.42;2.30;;;;;;;;;;5079191;28;20031;-62
2022/04/11 05:28:04;;;;;;;5.15;2.08;;;;;;;;;;5084439;28;20150;-62
2022/04/11 05:30:33;;;;;;;3.50;1.90;;;;;;;;;;5085690;28;20103;-63
2022/04/11 05:33:01;;;;;;;3.97;2.33;;;;;;;;;;5076876;28;20025;-63
2022/04/11 05:35:27;;;;;;;2.97;2.15;;;;;;;;;;5078423;28;20055;-63
2022/04/11 05:37:54;;;;;;;4.82;2.05;;;;;;;;;;5076332;28;20032;-63
2022/04/11 05:40:20;;;;;;;3.42;3.03;;;;;;;;;;5079564;28;20028;-63
2022/04/11 05:42:47;;;;;;;3.63;2.00;;;;;;;;;;5086889;28;20020;-62
2022/04/11 05:45:13;;;;;;;6.75;2.40;;;;;;;;;;5081925;28;20024;-62
2022/04/11 05:47:40;;;;;;;3.22;2.03;;;;;;;;;;5080530;28;20389;-62
2022/04/11 05:50:08;;;;;;;3.42;2.38;;;;;;;;;;5082005;28;20023;-62
2022/04/11 05:52:34;;;;;;;6.40;2.30;;;;;;;;;;5079636;28;20020;-63
2022/04/11 05:55:01;;;;;;;6.72;2.60;;;;;;;;;;5080908;28;20028;-63
2022/04/11 05:57:27;;;;;;;2.70;1.92;;;;;;;;;;5075230;28;20535;-62
2022/04/11 05:59:53;;;;;;;4.10;2.08;;;;;;;;;;5075908;28;20033;-63
2022/04/11 06:02:19;;;;;;;3.40;2.10;;;;;;;;;;5073917;28;20046;-63
2022/04/11 06:04:45;;;;;;;6.70;2.30;;;;;;;;;;5075179;28;20048;-63
2022/04/11 06:07:12;;;;;;;3.90;1.98;;;;;;;;;;5073205;28;20436;-63
2022/04/11 06:09:39;;;;;;;3.60;2.40;;;;;;;;;;5076365;28;20028;-63
2022/04/11 06:12:07;;;;;;;4.65;2.45;;;;;;;;;;5073901;28;20168;-62
2022/04/11 06:14:34;;;;;;;4.75;2.05;;;;;;;;;;5073183;28;20024;-66
2022/04/11 06:17:00;;;;;;;9.02;2.55;;;;;;;;;;5075207;28;20614;-63
2022/04/11 06:19:26;;;;;;;6.88;3.15;;;;;;;;;;5071944;28;20037;-62
2022/04/11 06:21:53;;;;;;;5.10;2.28;;;;;;;;;;5073631;28;20036;-62
2022/04/11 06:24:19;;;;;;;5.35;2.53;;;;;;;;;;5073936;28;20058;-63
2022/04/11 06:26:46;;;;;;;4.85;2.30;;;;;;;;;;5078157;28;20036;-63
2022/04/11 06:29:12;;;;;;;4.57;2.20;;;;;;;;;;5077808;28;20016;-63
2022/04/11 06:31:39;;;;;;;3.42;2.35;;;;;;;;;;5076950;28;20035;-62
2022/04/11 06:34:15;;;;;;;3.30;2.00;;;;;;;;;;5081087;28;20484;-63
2022/04/11 06:36:41;;;;;;;4.13;2.67;;;;;;;;;;5086880;28;20024;-63
2022/04/11 06:39:07;;;;;;;5.80;2.30;;;;;;;;;;5091212;28;20020;-63
2022/04/11 06:41:38;;;;;;;5.00;2.30;;;;;;;;;;5077330;28;20020;-62
2022/04/11 06:44:05;;;;;;;3.88;2.55;;;;;;;;;;5080835;28;20025;-63
2022/04/11 06:46:36;;;;;;;5.65;2.50;;;;;;;;;;5083049;28;20016;-63
2022/04/11 06:49:02;;;;;;;6.50;2.42;;;;;;;;;;5087554;28;20024;-63
2022/04/11 06:51:29;;;;;;;7.97;2.25;;;;;;;;;;5092082;28;20012;-63
2022/04/11 06:53:55;;;;;;;7.38;1.90;;;;;;;;;;5083132;28;20389;-63
2022/04/11 06:56:21;;;;;;;6.63;1.90;;;;;;;;;;5084009;28;20036;-63
2022/04/11 06:58:47;;;;;;;6.88;1.50;;;;;;;;;;5084883;28;20024;-63
2022/04/11 07:01:13;;;;;;;4.63;2.05;;;;;;;;;;5082819;28;20029;-63
2022/04/11 07:03:40;;;;;;;3.53;1.50;;;;;;;;;;5073606;28;20063;-63
2022/04/11 07:06:06;;;;;;;4.03;1.65;;;;;;;;;;5075108;28;20490;-63
2022/04/11 07:08:32;;;;;;;5.43;1.60;;;;;;;;;;5074309;28;20024;-63
2022/04/11 07:10:59;;;;;;;3.30;1.48;;;;;;;;;;5083635;28;20150;-63
2022/04/11 07:13:25;;;;;;;3.22;1.48;;;;;;;;;;5073538;28;20025;-63
2022/04/11 07:15:51;;;;;;;5.68;1.58;;;;;;;;;;5073290;28;20071;-63
2022/04/11 07:18:19;;;;;;;2.35;1.60;;;;;;;;;;5079730;28;20035;-63
2022/04/11 07:20:45;;;;;;;3.83;1.80;;;;;;;;;;5093112;28;20389;-63
2022/04/11 07:23:12;;;;;;;7.00;1.70;;;;;;;;;;5093638;28;20110;-63
2022/04/11 07:25:38;;;;;;;2.70;1.45;;;;;;;;;;5087446;28;20025;-63
2022/04/11 07:28:05;;;;;;;5.80;1.73;;;;;;;;;;5093360;28;20482;-63
2022/04/11 07:30:32;;;;;;;3.60;1.73;;;;;;;;;;5093034;28;20020;-63
2022/04/11 07:32:58;;;;;;;2.35;1.48;;;;;;;;;;5093339;28;20024;-63
2022/04/11 07:35:24;;;;;;;3.47;1.65;;;;;;;;;;5092882;28;20127;-63
2022/04/11 07:37:51;;;;;;;4.18;1.60;;;;;;;;;;5093091;28;22506;-63
2022/04/11 07:40:17;;;;;;;4.32;1.70;;;;;;;;;;5086221;28;20021;-63
2022/04/11 07:42:43;;;;;;;7.07;1.70;;;;;;;;;;5072431;28;20027;-63
2022/04/11 07:45:09;;;;;;;4.43;1.60;;;;;;;;;;5081203;28;20055;-63
2022/04/11 07:47:35;;;;;;;4.47;1.40;;;;;;;;;;5091838;28;20034;-63
2022/04/11 07:50:02;;;;;;;2.95;1.63;;;;;;;;;;5073507;28;20438;-63
2022/04/11 07:52:28;;;;;;;4.68;2.05;;;;;;;;;;5080941;28;20021;-63
2022/04/11 07:54:54;;;;;;;7.10;1.80;;;;;;;;;;5087284;28;20032;-63
2022/04/11 07:57:21;;;;;;;5.55;1.67;;;;;;;;;;5078097;28;20063;-63
2022/04/11 07:59:47;;;;;;;6.03;1.73;;;;;;;;;;5083004;28;20071;-63
2022/04/11 08:02:13;;;;;;;5.85;1.70;;;;;;;;;;5079708;28;20119;-63
2022/04/11 08:04:39;;;;;;;3.55;1.70;;;;;;;;;;5092054;28;20031;-63
2022/04/11 08:07:06;;;;;;;10.25;2.00;;;;;;;;;;5092092;28;20022;-62
2022/04/11 08:09:32;;;;;;;4.30;1.63;;;;;;;;;;5092606;28;20447;-62
2022/04/11 08:11:58;;;;;;;10.80;1.92;;;;;;;;;;5092037;28;20023;-63
2022/04/11 08:14:24;;;;;;;9.85;1.95;;;;;;;;;;5092600;28;20512;-62
2022/04/11 08:16:50;;;;;;;7.60;1.98;;;;;;;;;;5079944;28;20025;-63
2022/04/11 08:19:16;;;;;;;6.05;1.80;;;;;;;;;;5072152;28;20579;-62
2022/04/11 08:21:42;;;;;;;7.22;2.25;;;;;;;;;;5072145;28;20032;-62
2022/04/11 08:24:08;;;;;;;6.32;2.35;;;;;;;;;;5072244;28;20029;-62
2022/04/11 08:26:34;;;;;;;7.97;2.58;;;;;;;;;;5072096;28;20027;-62
2022/04/11 08:29:01;;;;;;;7.68;2.00;;;;;;;;;;5072281;28;20028;-63
2022/04/11 08:31:27;;;;;;;7.68;2.72;;;;;;;;;;5080785;28;20477;-62
2022/04/11 08:33:53;;;;;;;16.52;2.28;;;;;;;;;;5086663;28;20048;-62
2022/04/11 08:36:20;;;;;;;8.45;1.70;;;;;;;;;;5084023;28;20039;-63
2022/04/11 08:38:46;;;;;;;9.52;2.90;;;;;;;;;;5091190;28;20041;-63
2022/04/11 08:41:16;;;;;;;6.13;2.70;;;;;;;;;;5074198;28;20403;-63
2022/04/11 08:43:42;;;;;;;10.45;3.22;;;;;;;;;;5071894;28;20032;-63
2022/04/11 08:46:08;;;;;;;7.38;2.72;;;;;;;;;;5072190;28;20031;-63
2022/04/11 08:48:35;;;;;;;8.75;1.88;;;;;;;;;;5071622;28;20126;-63
2022/04/11 08:51:03;;;;;;;8.95;2.40;;;;;;;;;;5071767;28;20035;-63
2022/04/11 08:53:29;;;;;;;9.18;1.90;;;;;;;;;;5071941;28;20074;-63
2022/04/11 08:55:55;;;;;;;9.73;2.28;;;;;;;;;;5071810;28;20028;-64
2022/04/11 08:58:21;;;;;;;10.35;3.20;;;;;;;;;;5075161;28;20028;-63
2022/04/11 09:00:47;;;;;;;10.90;2.38;;;;;;;;;;5077103;28;20032;-63
2022/04/11 09:03:14;;;;;;;9.40;2.53;;;;;;;;;;5084725;28;20035;-63
2022/04/11 09:05:40;;;;;;;10.23;2.40;;;;;;;;;;5075515;28;20644;-63
2022/04/11 09:08:06;;;;;;;8.98;2.65;;;;;;;;;;5082724;28;20101;-63
2022/04/11 09:10:36;;;;;;;8.85;2.38;;;;;;;;;;5080431;28;20158;-63
2022/04/11 09:13:11;;;;;;;9.27;2.63;;;;;;;;;;5078094;28;20020;-63
2022/04/11 09:15:38;;;;;;;6.45;2.42;;;;;;;;;;5077860;28;20614;-63
2022/04/11 09:18:04;;;;;;;7.72;2.22;;;;;;;;;;5079911;28;20036;-63
2022/04/11 09:20:31;;;;;;;12.60;2.60;;;;;;;;;;5080926;28;20094;-63
2022/04/11 09:22:57;;;;;;;7.43;2.00;;;;;;;;;;5082798;28;20030;-63
2022/04/11 09:25:24;;;;;;;6.35;1.90;;;;;;;;;;5079669;28;20028;-63
2022/04/11 09:28:04;;;;;;;7.88;2.35;;;;;;;;;;5078365;28;20481;-63
2022/04/11 09:30:33;;;;;;;8.70;2.13;;;;;;;;;;5085543;28;20564;-63
2022/04/11 09:33:01;;;;;;;6.18;2.25;;;;;;;;;;5080259;28;20504;-63
2022/04/11 09:35:29;;;;;;;10.25;2.28;;;;;;;;;;5088116;28;20066;-63
2022/04/11 09:38:12;;;;;;;10.77;2.67;;;;;;;;;;5083516;28;20024;-63
2022/04/11 09:40:41;;;;;;;12.65;2.53;;;;;;;;;;5087304;28;20050;-63
2022/04/11 09:43:08;;;;;;;8.55;2.20;;;;;;;;;;5082015;28;20100;-63
2022/04/11 09:45:39;;;;;;;5.55;3.33;;;;;;;;;;5085367;28;20085;-63
2022/04/11 09:48:05;;;;;;;10.88;2.47;;;;;;;;;;5080969;28;20024;-63
2022/04/11 09:50:32;;;;;;;13.65;2.38;;;;;;;;;;5084365;28;20513;-63
2022/04/11 09:53:07;;;;;;;8.20;2.60;;;;;;;;;;5085134;28;20020;-66
2022/04/11 09:55:35;;;;;;;9.80;2.80;;;;;;;;;;5082941;28;20044;-62
2022/04/11 09:58:04;;;;;;;7.57;2.13;;;;;;;;;;5082159;28;20028;-62
2022/04/11 10:00:32;;;;;;;11.45;3.05;;;;;;;;;;5084466;28;20040;-62
2022/04/11 10:02:58;;;;;;;9.30;2.28;;;;;;;;;;5082334;28;20028;-62
2022/04/11 10:05:26;;;;;;;7.68;2.55;;;;;;;;;;5083690;28;20447;-63
2022/04/11 10:07:54;;;;;;;8.48;2.47;;;;;;;;;;5080563;28;20024;-62
2022/04/11 10:10:21;;;;;;;7.63;2.70;;;;;;;;;;5085338;28;20041;-62
2022/04/11 10:12:47;;;;;;;7.78;2.22;;;;;;;;;;5082954;28;20039;-62
2022/04/11 10:15:13;;;;;;;8.88;2.42;;;;;;;;;;5084468;28;20040;-62
2022/04/11 10:17:40;;;;;;;10.90;2.60;;;;;;;;;;5078598;28;20037;-62
2022/04/11 10:20:06;;;;;;;8.40;2.20;;;;;;;;;;5080887;28;20032;-62
2022/04/11 10:22:37;;;;;;;6.55;2.60;;;;;;;;;;5085107;28;20028;-62
2022/04/11 10:25:06;;;;;;;8.27;2.33;;;;;;;;;;5085561;28;20070;-62
2022/04/11 10:27:32;;;;;;;9.57;3.95;;;;;;;;;;5080944;28;20032;-63
2022/04/11 10:29:59;;;;;;;9.88;2.53;;;;;;;;;;5079466;28;20036;-62
2022/04/11 10:32:29;;;;;;;10.48;2.60;;;;;;;;;;5086074;28;20047;-63
2022/04/11 10:35:00;;;;;;;9.45;2.33;;;;;;;;;;5079307;28;20131;-63
2022/04/11 10:37:39;;;;;;;8.93;2.75;;;;;;;;;;5084515;28;20031;-63
2022/04/11 10:40:17;;;;;;;15.13;2.80;;;;;;;;;;5079919;28;20103;-63
2022/04/11 10:43:02;;;;;;;7.28;1.92;;;;;;;;;;5080195;28;20039;-63
2022/04/11 10:45:32;;;;;;;13.13;2.80;;;;;;;;;;5081215;28;20123;-63
2022/04/11 10:47:58;;;;;;;13.35;2.80;;;;;;;;;;5083817;28;20394;-63
2022/04/11 10:50:26;;;;;;;6.30;2.13;;;;;;;;;;5076938;28;20016;-63
2022/04/11 10:52:56;;;;;;;7.55;2.45;;;;;;;;;;5076030;28;20102;-63
2022/04/11 10:55:23;;;;;;;10.52;2.58;;;;;;;;;;5078049;28;20024;-63
2022/04/11 10:57:55;;;;;;;10.32;2.53;;;;;;;;;;5077212;28;20103;-63
2022/04/11 11:00:26;;;;;;;11.63;2.70;;;;;;;;;;5080703;28;20027;-63
2022/04/11 11:02:53;;;;;;;11.20;2.58;;;;;;;;;;5076832;28;20409;-63
2022/04/11 11:05:25;;;;;;;9.05;2.08;;;;;;;;;;5078668;28;20477;-63
2022/04/11 11:08:09;;;;;;;10.18;2.42;;;;;;;;;;5079600;28;20080;-63
2022/04/11 11:10:55;;;;;;;6.45;2.35;;;;;;;;;;5078008;28;20024;-63
2022/04/11 11:13:27;;;;;;;10.05;2.25;;;;;;;;;;5078902;28;20025;-63
2022/04/11 11:15:57;;;;;;;15.80;3.40;;;;;;;;;;5076160;28;20024;-63
2022/04/11 11:18:24;;;;;;;7.57;2.25;;;;;;;;;;5074265;28;20033;-63
2022/04/11 11:20:54;;;;;;;9.73;3.03;;;;;;;;;;5075793;28;20036;-63
2022/04/11 11:23:31;;;;;;;14.00;2.95;;;;;;;;;;5075555;28;20111;-63
2022/04/11 11:26:08;;;;;;;11.77;2.80;;;;;;;;;;5074366;28;20028;-63
2022/04/11 11:28:34;;;;;;;8.18;2.22;;;;;;;;;;5080608;28;20465;-63
2022/04/11 11:31:00;;;;;;;7.25;2.17;;;;;;;;;;5075055;28;20032;-63
2022/04/11 11:33:27;;;;;;;8.52;2.50;;;;;;;;;;5074789;28;20389;-63
2022/04/11 11:35:55;;;;;;;11.15;2.58;;;;;;;;;;5076455;28;20085;-63
2022/04/11 11:38:31;;;;;;;9.23;2.97;;;;;;;;;;5073623;28;20032;-63
2022/04/11 11:41:04;;;;;;;14.30;2.83;;;;;;;;;;5075435;28;20043;-63
2022/04/11 11:43:30;;;;;;;9.35;2.53;;;;;;;;;;5076016;28;20032;-63
2022/04/11 11:45:57;;;;;;;9.82;3.10;;;;;;;;;;5077128;28;20420;-63
2022/04/11 11:48:30;;;;;;;8.75;2.75;;;;;;;;;;5076315;28;20036;-63
2022/04/11 11:50:58;;;;;;;8.23;2.85;;;;;;;;;;5075498;28;20427;-63
2022/04/11 11:53:25;;;;;;;9.38;2.72;;;;;;;;;;5077232;28;20025;-63
2022/04/11 11:55:54;;;;;;;14.35;3.05;;;;;;;;;;5076925;28;20082;-63
2022/04/11 11:58:20;;;;;;;11.30;2.80;;;;;;;;;;5076574;28;20035;-63
2022/04/11 12:00:47;;;;;;;8.05;2.60;;;;;;;;;;5079390;28;20035;-63
2022/04/11 12:05:59;;;;;;;12.45;2.42;;;;;;;;;;5079164;28;20039;-63
2022/04/11 12:08:30;;;;;;;8.10;2.20;;;;;;;;;;5076507;28;20052;-63
2022/04/11 12:10:59;;;;;;;13.68;3.40;;;;;;;;;;5079011;28;20025;-63
2022/04/11 12:13:29;;;;;;;14.55;3.60;;;;;;;;;;5077290;28;20020;-63
2022/04/11 12:16:08;;;;;;;16.27;3.85;;;;;;;;;;5075927;28;20035;-63
2022/04/11 12:18:50;;;;;;;10.30;2.63;;;;;;;;;;5078093;28;20052;-63
2022/04/11 12:21:16;;;;;;;17.98;4.53;;;;;;;;;;5079027;28;20112;-63
2022/04/11 12:23:49;;;;;;;9.40;3.00;;;;;;;;;;5077918;28;20709;-63
2022/04/11 12:26:27;;;;;;;8.35;2.30;;;;;;;;;;5081042;28;20426;-63
2022/04/11 12:28:54;;;;;;;13.35;3.00;;;;;;;;;;5075178;28;20044;-63
2022/04/11 12:31:22;;;;;;;17.00;3.92;;;;;;;;;;5078529;28;20028;-63
2022/04/11 12:33:52;;;;;;;12.82;2.78;;;;;;;;;;5074782;28;20051;-63
2022/04/11 12:36:23;;;;;;;9.55;2.95;;;;;;;;;;5076223;28;20405;-63
2022/04/11 12:38:49;;;;;;;8.65;2.58;;;;;;;;;;5074765;28;20040;-63
2022/04/11 12:41:24;;;;;;;10.05;3.03;;;;;;;;;;5076165;28;20610;-63
2022/04/11 12:44:09;;;;;;;11.35;3.20;;;;;;;;;;5074187;28;20103;-63
2022/04/11 12:46:40;;;;;;;11.60;2.70;;;;;;;;;;5078140;28;20047;-63
2022/04/11 12:49:07;;;;;;;13.95;3.17;;;;;;;;;;5077559;28;20369;-63
2022/04/11 12:51:33;;;;;;;10.50;2.35;;;;;;;;;;5074531;28;20016;-63
2022/04/11 12:54:04;;;;;;;14.25;2.72;;;;;;;;;;5075493;28;20078;-63
2022/04/11 12:56:36;;;;;;;8.70;2.80;;;;;;;;;;5076867;28;20039;-63
2022/04/11 12:59:03;;;;;;;12.00;3.15;;;;;;;;;;5076125;28;20051;-63
2022/04/11 13:01:47;;;;;;;9.15;2.67;;;;;;;;;;5074448;28;20438;-63
2022/04/11 13:04:14;;;;;;;11.20;2.90;;;;;;;;;;5080132;28;20024;-63
2022/04/11 13:06:40;;;;;;;13.77;2.53;;;;;;;;;;5072717;28;20039;-63
2022/04/11 13:09:06;;;;;;;13.95;3.33;;;;;;;;;;5075744;28;20028;-63
2022/04/11 13:11:39;;;;;;;13.30;3.28;;;;;;;;;;5077366;28;20021;-63
2022/04/11 13:14:05;;;;;;;12.32;3.35;;;;;;;;;;5083260;28;20456;-72
2022/04/11 13:19:17;;;;;;;15.63;3.75;;;;;;;;;;5083492;28;20036;-71
2022/04/11 13:21:43;;;;;;;20.02;3.72;;;;;;;;;;5087989;28;20374;-72
2022/04/11 13:24:09;;;;;;;22.00;4.43;;;;;;;;;;5083054;28;20028;-69
2022/04/11 13:26:35;;;;;;;15.93;3.08;;;;;;;;;;5086599;28;20052;-65
2022/04/11 13:29:01;;;;;;;17.02;3.75;;;;;;;;;;5079496;28;20951;-64
2022/04/11 13:31:27;;;;;;;12.25;3.55;;;;;;;;;;5083648;28;20016;-65
2022/04/11 13:33:53;;;;;;;36.67;7.90;;;;;;;;;;5074284;28;20048;-70
2022/04/11 13:36:19;;;;;;;15.85;3.17;;;;;;;;;;5076418;28;20028;-64
2022/04/11 13:38:46;;;;;;;38.45;8.05;;;;;;;;;;5083850;28;20047;-64
2022/04/11 13:41:12;;;;;;;16.42;3.88;;;;;;;;;;5073470;28;20032;-66
2022/04/11 13:43:39;;;;;;;14.07;2.70;;;;;;;;;;5080316;28;20429;-71
2022/04/11 13:46:05;;;;;;;11.68;2.65;;;;;;;;;;5084135;28;20478;-70
2022/04/11 13:48:32;;;;;;;10.88;2.42;;;;;;;;;;5083036;28;20028;-66
2022/04/11 13:50:58;;;;;;;16.73;2.95;;;;;;;;;;5083330;28;20029;-68
2022/04/11 13:53:28;;;;;;;15.55;3.13;;;;;;;;;;5084265;28;20028;-66
2022/04/11 13:55:55;;;;;;;9.57;3.13;;;;;;;;;;5080132;28;20122;-78
2022/04/11 13:58:21;;;;;;;11.15;2.80;;;;;;;;;;5089899;28;20058;-65
2022/04/11 14:00:47;;;;;;;13.73;3.45;;;;;;;;;;5081920;28;20042;-70
2022/04/11 14:03:13;;;;;;;12.00;2.67;;;;;;;;;;5086136;28;20056;-66
2022/04/11 14:05:40;;;;;;;16.67;3.42;;;;;;;;;;5085628;28;20024;-63
2022/04/11 14:08:06;;;;;;;15.85;3.63;;;;;;;;;;5080067;28;20058;-63
2022/04/11 14:10:32;;;;;;;13.88;3.65;;;;;;;;;;5080443;28;20389;-63
2022/04/11 14:12:58;;;;;;;13.18;2.80;;;;;;;;;;5079597;28;20024;-63
2022/04/11 14:15:24;;;;;;;17.73;2.97;;;;;;;;;;5080185;28;20024;-63
2022/04/11 14:17:50;;;;;;;12.60;3.25;;;;;;;;;;5076554;28;20031;-63
2022/04/11 14:20:17;;;;;;;13.25;3.72;;;;;;;;;;5079784;28;20078;-63
2022/04/11 14:22:43;;;;;;;16.13;4.88;;;;;;;;;;5078844;28;20020;-63
2022/04/11 14:25:09;;;;;;;20.13;4.30;;;;;;;;;;5076098;28;20035;-63
2022/04/11 14:27:35;;;;;;;15.90;3.13;;;;;;;;;;5077456;28;20024;-63
2022/04/11 14:30:01;;;;;;;17.58;3.83;;;;;;;;;;5078668;28;20012;-63
2022/04/11 14:32:28;;;;;;;18.88;4.63;;;;;;;;;;5077703;28;20533;-63
2022/04/11 14:34:54;;;;;;;19.10;2.95;;;;;;;;;;5076032;28;20176;-63
2022/04/11 14:37:20;;;;;;;19.90;4.30;;;;;;;;;;5079569;28;20020;-63
2022/04/11 14:39:46;;;;;;;19.23;4.30;;;;;;;;;;5076751;28;20485;-63
2022/04/11 14:42:12;;;;;;;14.55;3.53;;;;;;;;;;5080009;28;20040;-63
2022/04/11 14:44:38;;;;;;;22.90;4.00;;;;;;;;;;5076948;28;20113;-63
2022/04/11 14:47:05;;;;;;;12.95;4.00;;;;;;;;;;5078078;28;20045;-63
2022/04/11 14:49:32;;;;;;;18.60;3.33;;;;;;;;;;5075918;28;20017;-63